Terminal Aerodrome Forecast
Issued by NWS

Home | Current Version | Previous Version | Text Only | Print | Product List | Glossary On
Versions: 1 2 3 4 5 6 7 8 9 10 11 12 13 14 15
000
FTUS45 KRIW 061132
TAFPNA
TAF
KPNA 061132Z 0612/0712 29011KT P6SM SKC
     FM061800 VRB05KT P6SM SCT050 BKN100
     FM062200 29006KT P6SM VCSH SCT030 OVC050
     FM070800 VRB05KT P6SM -SN BKN030
      AMD LTD TO CLD VIS AND WIND=

USA.gov is the U.S. government's official web portal to all federal, state and local government web resources and services.